createdAt,value
2019-01-12T00:00:34.385Z,1015.62
2019-01-12T00:01:34.348Z,1015.67
2019-01-12T00:02:34.315Z,1015.65
2019-01-12T00:03:34.274Z,1015.66
2019-01-12T00:04:34.236Z,1015.57
2019-01-12T00:05:34.199Z,1015.66
2019-01-12T00:06:34.161Z,1015.59
2019-01-12T00:07:34.125Z,1015.62
2019-01-12T00:08:34.093Z,1015.64
2019-01-12T00:09:34.051Z,1015.60
2019-01-12T00:10:34.012Z,1015.59
2019-01-12T00:11:33.975Z,1015.63
2019-01-12T00:12:33.938Z,1015.63
2019-01-12T00:13:33.902Z,1015.56
2019-01-12T00:14:33.862Z,1015.54
2019-01-12T00:15:33.829Z,1015.58
2019-01-12T00:16:33.786Z,1015.54
2019-01-12T00:17:33.751Z,1015.61
2019-01-12T00:18:33.713Z,1015.58
2019-01-12T00:19:33.674Z,1015.54
2019-01-12T00:20:33.637Z,1015.56
2019-01-12T00:21:33.602Z,1015.49
2019-01-12T00:22:33.581Z,1015.55
2019-01-12T00:23:33.535Z,1015.59
2019-01-12T00:24:33.486Z,1015.55
2019-01-12T00:25:33.449Z,1015.58
2019-01-12T00:26:33.412Z,1015.58
2019-01-12T00:27:33.376Z,1015.50
2019-01-12T00:28:33.340Z,1015.58
2019-01-12T00:29:33.300Z,1015.47
2019-01-12T00:30:33.261Z,1015.57
2019-01-12T00:31:33.229Z,1015.57
2019-01-12T00:32:33.190Z,1015.55
2019-01-12T00:33:33.150Z,1015.58
2019-01-12T00:34:33.114Z,1015.52
2019-01-12T00:35:33.075Z,1015.51
2019-01-12T00:36:33.036Z,1015.45
2019-01-12T00:37:33.002Z,1015.44
2019-01-12T00:38:32.963Z,1015.45
2019-01-12T00:39:32.928Z,1015.36
2019-01-12T00:40:32.888Z,1015.43
2019-01-12T00:41:32.868Z,1015.43
2019-01-12T00:42:32.818Z,1015.41
2019-01-12T00:43:32.771Z,1015.40
2019-01-12T00:44:32.738Z,1015.42
2019-01-12T00:45:32.701Z,1015.44
2019-01-12T00:46:32.685Z,1015.37
2019-01-12T00:47:32.756Z,1015.47
2019-01-12T00:48:32.587Z,1015.46
2019-01-12T00:49:33.246Z,1015.44
2019-01-12T00:50:32.512Z,1015.45
2019-01-12T00:51:32.474Z,1015.39
2019-01-12T00:52:32.437Z,1015.46
2019-01-12T00:53:32.401Z,1015.39
2019-01-12T00:54:38.348Z,1015.29
2019-01-12T00:55:32.330Z,1015.39
2019-01-12T00:56:32.288Z,1015.45
2019-01-12T00:57:32.270Z,1015.37
2019-01-12T00:58:32.211Z,1015.42
2019-01-12T00:59:32.175Z,1015.41
2019-01-12T01:00:32.138Z,1015.40
2019-01-12T01:01:32.101Z,1015.39
2019-01-12T01:02:32.061Z,1015.36
2019-01-12T01:03:32.024Z,1015.42
2019-01-12T01:04:31.986Z,1015.41
2019-01-12T01:05:31.950Z,1015.31
2019-01-12T01:06:31.910Z,1015.30
2019-01-12T01:07:31.875Z,1015.34
2019-01-12T01:08:31.837Z,1015.38
2019-01-12T01:09:31.798Z,1015.35
2019-01-12T01:10:31.763Z,1015.30
2019-01-12T01:11:31.726Z,1015.24
2019-01-12T01:12:31.688Z,1015.24
2019-01-12T01:13:31.647Z,1015.29
2019-01-12T01:14:31.611Z,1015.34
2019-01-12T01:15:31.573Z,1015.37
2019-01-12T01:16:31.537Z,1015.45
2019-01-12T01:17:31.499Z,1015.38
2019-01-12T01:18:31.461Z,1015.37
2019-01-12T01:19:31.421Z,1015.39
2019-01-12T01:20:31.383Z,1015.36
2019-01-12T01:21:31.348Z,1015.33
2019-01-12T01:22:31.332Z,1015.43
2019-01-12T01:23:31.274Z,1015.41
2019-01-12T01:24:31.235Z,1015.48
2019-01-12T01:25:31.200Z,1015.40
2019-01-12T01:26:31.160Z,1015.32
2019-01-12T01:27:31.123Z,1015.46
2019-01-12T01:28:31.090Z,1015.35
2019-01-12T01:29:31.050Z,1015.41
2019-01-12T01:30:31.013Z,1015.35
2019-01-12T01:31:30.975Z,1015.41
2019-01-12T01:32:30.935Z,1015.34
2019-01-12T01:33:30.896Z,1015.37
2019-01-12T01:34:30.861Z,1015.40
2019-01-12T01:35:30.822Z,1015.34
2019-01-12T01:36:30.798Z,1015.44
2019-01-12T01:37:30.750Z,1015.42
2019-01-12T01:38:30.711Z,1015.41
2019-01-12T01:39:30.674Z,1015.51
2019-01-12T01:40:30.636Z,1015.42
2019-01-12T01:41:30.599Z,1015.52
2019-01-12T01:42:30.558Z,1015.46
2019-01-12T01:43:30.523Z,1015.48
2019-01-12T01:44:30.488Z,1015.37
2019-01-12T01:45:30.446Z,1015.42
2019-01-12T01:46:30.412Z,1015.51
2019-01-12T01:47:30.374Z,1015.48
2019-01-12T01:48:30.336Z,1015.46
2019-01-12T01:49:30.300Z,1015.34
2019-01-12T01:50:30.329Z,1015.40
2019-01-12T01:51:30.226Z,1015.30
2019-01-12T01:52:30.187Z,1015.29
2019-01-12T01:53:30.152Z,1015.37
2019-01-12T01:54:30.111Z,1015.38
2019-01-12T01:55:30.069Z,1015.37
2019-01-12T01:56:30.034Z,1015.30
2019-01-12T01:57:30.000Z,1015.34
2019-01-12T01:58:29.963Z,1015.35
2019-01-12T01:59:29.922Z,1015.32
2019-01-12T02:00:29.889Z,1015.39
2019-01-12T02:01:29.848Z,1015.28
2019-01-12T02:02:29.810Z,1015.41
2019-01-12T02:03:29.896Z,1015.34
2019-01-12T02:04:29.737Z,1015.36
2019-01-12T02:05:29.696Z,1015.30
2019-01-12T02:06:29.670Z,1015.39
2019-01-12T02:07:29.622Z,1015.30
2019-01-12T02:08:29.584Z,1015.36
2019-01-12T02:09:29.548Z,1015.32
2019-01-12T02:10:29.505Z,1015.29
2019-01-12T02:11:29.471Z,1015.29
2019-01-12T02:12:29.445Z,1015.34
2019-01-12T02:13:29.396Z,1015.27
2019-01-12T02:14:29.359Z,1015.25
2019-01-12T02:15:29.323Z,1015.28
2019-01-12T02:16:29.284Z,1015.25
2019-01-12T02:17:29.245Z,1015.22
2019-01-12T02:18:29.208Z,1015.24
2019-01-12T02:19:29.182Z,1015.21
2019-01-12T02:20:29.136Z,1015.23
2019-01-12T02:21:29.146Z,1015.23
2019-01-12T02:22:29.059Z,1015.19
2019-01-12T02:23:29.020Z,1015.22
2019-01-12T02:24:28.983Z,1015.19
2019-01-12T02:25:28.951Z,1015.22
2019-01-12T02:26:28.907Z,1015.30
2019-01-12T02:27:28.873Z,1015.16
2019-01-12T02:28:28.833Z,1015.22
2019-01-12T02:29:28.797Z,1015.21
2019-01-12T02:30:28.759Z,1015.24
2019-01-12T02:31:28.717Z,1015.18
2019-01-12T02:32:28.684Z,1015.22
2019-01-12T02:33:28.648Z,1015.22
2019-01-12T02:34:28.607Z,1015.24
2019-01-12T02:35:28.572Z,1015.25
2019-01-12T02:36:28.533Z,1015.21
2019-01-12T02:37:28.497Z,1015.21
2019-01-12T02:38:28.457Z,1015.19
2019-01-12T02:39:28.422Z,1015.16
2019-01-12T02:40:28.385Z,1015.15
2019-01-12T02:41:28.351Z,1015.01
2019-01-12T02:42:28.306Z,1015.14
2019-01-12T02:43:28.270Z,1015.07
2019-01-12T02:44:28.233Z,1015.17
2019-01-12T02:45:28.198Z,1015.12
2019-01-12T02:46:28.157Z,1015.13
2019-01-12T02:47:28.119Z,1015.07
2019-01-12T02:48:28.084Z,1015.10
2019-01-12T02:49:28.045Z,1015.08
2019-01-12T02:50:28.006Z,1015.03
2019-01-12T02:51:27.990Z,1015.07
2019-01-12T02:52:27.931Z,1015.00
2019-01-12T02:53:27.896Z,1015.05
2019-01-12T02:54:27.858Z,1015.00
2019-01-12T02:55:27.820Z,1015.02
2019-01-12T02:56:27.783Z,1014.97
2019-01-12T02:57:27.746Z,1015.00
2019-01-12T02:58:27.706Z,1014.98
2019-01-12T02:59:27.670Z,1014.98
2019-01-12T03:00:27.633Z,1014.96
2019-01-12T03:01:27.611Z,1014.90
2019-01-12T03:02:27.557Z,1014.97
2019-01-12T03:03:27.520Z,1014.96
2019-01-12T03:04:27.483Z,1015.00
2019-01-12T03:05:27.445Z,1015.02
2019-01-12T03:06:27.406Z,1014.97
2019-01-12T03:07:27.419Z,1014.94
2019-01-12T03:08:27.332Z,1015.00
2019-01-12T03:09:27.295Z,1014.90
2019-01-12T03:10:27.255Z,1014.93
2019-01-12T03:11:27.974Z,1015.00
2019-01-12T03:12:27.181Z,1014.95
2019-01-12T03:13:27.142Z,1014.98
2019-01-12T03:14:27.107Z,1014.98
2019-01-12T03:15:27.073Z,1014.94
2019-01-12T03:16:27.031Z,1014.95
2019-01-12T03:17:26.994Z,1014.88
2019-01-12T03:18:26.955Z,1014.92
2019-01-12T03:19:26.920Z,1014.89
2019-01-12T03:20:26.883Z,1014.85
2019-01-12T03:21:26.843Z,1014.87
2019-01-12T03:22:26.807Z,1014.89
2019-01-12T03:23:26.767Z,1014.77
2019-01-12T03:24:26.731Z,1014.86
2019-01-12T03:25:26.693Z,1014.81
2019-01-12T03:26:26.655Z,1014.82
2019-01-12T03:27:26.614Z,1014.82
2019-01-12T03:28:26.581Z,1014.85
2019-01-12T03:29:26.545Z,1014.77
2019-01-12T03:30:26.506Z,1014.70
2019-01-12T03:31:26.470Z,1014.76
2019-01-12T03:32:26.430Z,1014.65
2019-01-12T03:33:26.394Z,1014.74
2019-01-12T03:34:26.355Z,1014.65
2019-01-12T03:35:26.318Z,1014.68
2019-01-12T03:36:26.284Z,1014.66
2019-01-12T03:37:26.245Z,1014.64
2019-01-12T03:38:27.096Z,1014.67
2019-01-12T03:39:26.166Z,1014.61
2019-01-12T03:40:26.134Z,1014.59
2019-01-12T03:41:26.087Z,1014.58
2019-01-12T03:42:26.054Z,1014.57
2019-01-12T03:43:26.019Z,1014.54
2019-01-12T03:44:25.983Z,1014.58
2019-01-12T03:45:25.941Z,1014.55
2019-01-12T03:46:25.902Z,1014.52
2019-01-12T03:47:25.872Z,1014.50
2019-01-12T03:48:25.833Z,1014.47
2019-01-12T03:49:25.804Z,1014.43
2019-01-12T03:50:25.753Z,1014.44
2019-01-12T03:51:25.712Z,1014.43
2019-01-12T03:52:25.675Z,1014.38
2019-01-12T03:53:25.639Z,1014.38
2019-01-12T03:54:25.601Z,1014.43
2019-01-12T03:55:26.028Z,1014.42
2019-01-12T03:56:25.529Z,1014.42
2019-01-12T03:57:25.488Z,1014.37
2019-01-12T03:58:25.452Z,1014.34
2019-01-12T03:59:25.412Z,1014.43
2019-01-12T04:00:25.377Z,1014.44
2019-01-12T04:01:25.339Z,1014.43
2019-01-12T04:02:25.300Z,1014.45
2019-01-12T04:03:25.266Z,1014.42
2019-01-12T04:04:25.226Z,1014.45
2019-01-12T04:05:25.188Z,1014.38
2019-01-12T04:06:25.161Z,1014.43
2019-01-12T04:07:25.115Z,1014.43
2019-01-12T04:08:25.074Z,1014.46
2019-01-12T04:09:25.036Z,1014.43
2019-01-12T04:10:24.999Z,1014.38
2019-01-12T04:11:24.961Z,1014.49
2019-01-12T04:12:24.924Z,1014.45
2019-01-12T04:13:24.891Z,1014.44
2019-01-12T04:14:24.849Z,1014.44
2019-01-12T04:15:24.809Z,1014.37
2019-01-12T04:16:24.774Z,1014.42
2019-01-12T04:17:24.735Z,1014.40
2019-01-12T04:18:24.696Z,1014.38
2019-01-12T04:19:24.661Z,1014.36
2019-01-12T04:20:24.622Z,1014.34
2019-01-12T04:21:24.590Z,1014.36
2019-01-12T04:22:24.551Z,1014.35
2019-01-12T04:23:24.511Z,1014.25
2019-01-12T04:24:24.471Z,1014.32
2019-01-12T04:25:24.435Z,1014.21
2019-01-12T04:26:24.397Z,1014.25
2019-01-12T04:27:24.368Z,1014.33
2019-01-12T04:28:24.327Z,1014.28
2019-01-12T04:29:24.286Z,1014.26
2019-01-12T04:30:24.246Z,1014.24
2019-01-12T04:31:24.207Z,1014.32
2019-01-12T04:32:24.171Z,1014.27
2019-01-12T04:33:24.134Z,1014.28
2019-01-12T04:34:24.098Z,1014.21
2019-01-12T04:35:24.757Z,1014.23
2019-01-12T04:36:24.022Z,1014.26
2019-01-12T04:37:23.982Z,1014.23
2019-01-12T04:38:23.943Z,1014.30
2019-01-12T04:39:23.909Z,1014.31
2019-01-12T04:40:23.877Z,1014.26
2019-01-12T04:41:23.833Z,1014.22
2019-01-12T04:42:23.793Z,1014.27
2019-01-12T04:43:23.758Z,1014.30
2019-01-12T04:44:23.730Z,1014.26
2019-01-12T04:45:23.682Z,1014.27
2019-01-12T04:46:23.643Z,1014.24
2019-01-12T04:47:23.606Z,1014.21
2019-01-12T04:48:23.570Z,1014.17
2019-01-12T04:49:23.531Z,1014.23
2019-01-12T04:50:23.496Z,1014.23
2019-01-12T04:51:23.460Z,1014.26
2019-01-12T04:52:23.419Z,1014.15
2019-01-12T04:53:23.385Z,1014.22
2019-01-12T04:54:23.346Z,1014.25
2019-01-12T04:55:23.308Z,1014.29
2019-01-12T04:56:23.275Z,1014.23
2019-01-12T04:57:23.231Z,1014.27
2019-01-12T04:58:23.194Z,1014.19
2019-01-12T04:59:23.158Z,1014.25
2019-01-12T05:00:23.119Z,1014.23
2019-01-12T05:01:23.084Z,1014.24
2019-01-12T05:02:23.073Z,1014.23
2019-01-12T05:03:23.004Z,1014.30
2019-01-12T05:04:22.971Z,1014.25
2019-01-12T05:05:22.933Z,1014.18
2019-01-12T05:06:22.893Z,1014.24
2019-01-12T05:07:22.859Z,1014.31
2019-01-12T05:08:22.821Z,1014.24
2019-01-12T05:09:22.785Z,1014.21
2019-01-12T05:10:22.741Z,1014.15
2019-01-12T05:11:22.709Z,1014.19
2019-01-12T05:12:22.671Z,1014.14
2019-01-12T05:13:22.633Z,1014.25
2019-01-12T05:14:22.595Z,1014.22
2019-01-12T05:15:22.558Z,1014.21
2019-01-12T05:16:22.518Z,1014.22
2019-01-12T05:17:22.483Z,1014.21
2019-01-12T05:18:22.442Z,1014.17
2019-01-12T05:19:22.402Z,1014.23
2019-01-12T05:20:22.371Z,1014.21
2019-01-12T05:21:22.330Z,1014.20
2019-01-12T05:22:22.291Z,1014.21
2019-01-12T05:23:22.256Z,1014.16
2019-01-12T05:24:22.233Z,1014.15
2019-01-12T05:25:22.178Z,1014.16
2019-01-12T05:26:22.140Z,1014.17
2019-01-12T05:27:22.104Z,1014.20
2019-01-12T05:28:22.068Z,1014.19
2019-01-12T05:29:22.030Z,1014.17
2019-01-12T05:30:21.991Z,1014.19
2019-01-12T05:31:21.954Z,1014.05
2019-01-12T05:32:21.907Z,1014.12
2019-01-12T05:33:21.877Z,1014.20
2019-01-12T05:34:21.854Z,1014.22
2019-01-12T05:35:21.802Z,1014.11
2019-01-12T05:36:21.767Z,1014.11
2019-01-12T05:37:21.729Z,1014.15
2019-01-12T05:38:21.690Z,1014.16
2019-01-12T05:39:21.654Z,1014.17
2019-01-12T05:40:21.617Z,1014.15
2019-01-12T05:41:21.581Z,1014.22
2019-01-12T05:42:21.542Z,1014.22
2019-01-12T05:43:21.503Z,1014.21
2019-01-12T05:44:21.466Z,1014.18
2019-01-12T05:45:21.426Z,1014.04
2019-01-12T05:46:21.444Z,1014.21
2019-01-12T05:47:21.352Z,1014.22
2019-01-12T05:48:21.320Z,1014.22
2019-01-12T05:49:21.279Z,1014.24
2019-01-12T05:50:21.246Z,1014.26
2019-01-12T05:51:21.199Z,1014.26
2019-01-12T05:52:21.166Z,1014.28
2019-01-12T05:53:21.129Z,1014.19
2019-01-12T05:54:21.089Z,1014.21
2019-01-12T05:55:21.051Z,1014.21
2019-01-12T05:56:21.013Z,1014.19
2019-01-12T05:57:21.042Z,1014.15
2019-01-12T05:58:20.941Z,1014.24
2019-01-12T05:59:20.900Z,1014.21
2019-01-12T06:00:20.880Z,1014.05
2019-01-12T06:01:20.823Z,1014.11
2019-01-12T06:02:20.787Z,1014.15
2019-01-12T06:03:20.752Z,1014.11
2019-01-12T06:04:20.710Z,1014.16
2019-01-12T06:05:20.675Z,1014.16
2019-01-12T06:06:20.635Z,1014.16
2019-01-12T06:07:20.596Z,1014.10
2019-01-12T06:08:20.559Z,1014.11
2019-01-12T06:09:20.522Z,1014.15
2019-01-12T06:10:20.483Z,1014.09
2019-01-12T06:11:20.444Z,1014.05
2019-01-12T06:12:20.408Z,1014.13
2019-01-12T06:13:20.370Z,1014.11
2019-01-12T06:14:20.333Z,1014.04
2019-01-12T06:15:20.296Z,1014.09
2019-01-12T06:16:20.256Z,1014.05
2019-01-12T06:17:20.276Z,1014.01
2019-01-12T06:18:20.179Z,1013.95
2019-01-12T06:19:20.143Z,1014.05
2019-01-12T06:20:20.111Z,1013.99
2019-01-12T06:21:20.067Z,1014.00
2019-01-12T06:22:20.027Z,1013.98
2019-01-12T06:23:19.987Z,1013.99
2019-01-12T06:24:19.955Z,1014.01
2019-01-12T06:25:19.914Z,1014.03
2019-01-12T06:26:19.877Z,1014.07
2019-01-12T06:27:19.838Z,1014.03
2019-01-12T06:28:19.799Z,1014.07
2019-01-12T06:29:19.765Z,1014.00
2019-01-12T06:30:19.725Z,1014.03
2019-01-12T06:31:19.681Z,1014.01
2019-01-12T06:32:19.647Z,1013.98
2019-01-12T06:33:19.616Z,1014.01
2019-01-12T06:34:19.570Z,1013.91
2019-01-12T06:35:19.533Z,1013.99
2019-01-12T06:36:19.498Z,1013.93
2019-01-12T06:37:19.458Z,1013.95
2019-01-12T06:38:19.420Z,1013.84
2019-01-12T06:39:19.384Z,1013.91
2019-01-12T06:40:19.346Z,1013.88
2019-01-12T06:41:19.308Z,1013.89
2019-01-12T06:42:19.273Z,1013.90
2019-01-12T06:43:19.229Z,1013.89
2019-01-12T06:44:19.194Z,1013.82
2019-01-12T06:45:19.153Z,1013.89
2019-01-12T06:46:19.136Z,1013.81
2019-01-12T06:47:19.078Z,1013.88
2019-01-12T06:48:19.042Z,1013.84
2019-01-12T06:49:19.004Z,1013.84
2019-01-12T06:50:18.963Z,1013.74
2019-01-12T06:51:18.929Z,1013.80
2019-01-12T06:52:18.889Z,1013.82
2019-01-12T06:53:18.850Z,1013.72
2019-01-12T06:54:18.810Z,1013.66
2019-01-12T06:55:18.776Z,1013.71
2019-01-12T06:56:18.734Z,1013.57
2019-01-12T06:57:18.698Z,1013.65
2019-01-12T06:58:18.661Z,1013.55
2019-01-12T06:59:18.621Z,1013.62
2019-01-12T07:00:18.590Z,1013.55
2019-01-12T07:01:18.545Z,1013.60
2019-01-12T07:02:18.506Z,1013.54
2019-01-12T07:03:18.469Z,1013.65
2019-01-12T07:04:18.431Z,1013.55
2019-01-12T07:05:18.394Z,1013.53
2019-01-12T07:06:18.375Z,1013.61
2019-01-12T07:07:18.319Z,1013.53
2019-01-12T07:08:18.277Z,1013.37
2019-01-12T07:09:18.243Z,1013.46
2019-01-12T07:10:18.201Z,1013.51
2019-01-12T07:11:18.165Z,1013.36
2019-01-12T07:12:18.127Z,1013.50
2019-01-12T07:13:18.091Z,1013.53
2019-01-12T07:14:18.050Z,1013.37
2019-01-12T07:15:18.012Z,1013.47
2019-01-12T07:16:17.974Z,1013.41
2019-01-12T07:17:17.944Z,1013.42
2019-01-12T07:18:17.899Z,1013.50
2019-01-12T07:19:17.876Z,1013.42
2019-01-12T07:20:17.830Z,1013.43
2019-01-12T07:21:17.784Z,1013.38
2019-01-12T07:22:17.748Z,1013.42
2019-01-12T07:23:17.713Z,1013.40
2019-01-12T07:24:17.670Z,1013.49
2019-01-12T07:25:17.631Z,1013.38
2019-01-12T07:26:17.781Z,1013.49
2019-01-12T07:27:17.559Z,1013.39
2019-01-12T07:28:17.524Z,1013.43
2019-01-12T07:29:17.480Z,1013.40
2019-01-12T07:30:17.440Z,1013.42
2019-01-12T07:31:17.403Z,1013.35
2019-01-12T07:32:17.363Z,1013.33
2019-01-12T07:33:17.328Z,1013.34
2019-01-12T07:34:17.281Z,1013.37
2019-01-12T07:35:17.249Z,1013.38
2019-01-12T07:36:17.214Z,1013.40
2019-01-12T07:37:17.172Z,1013.42
2019-01-12T07:38:17.136Z,1013.50
2019-01-12T07:39:17.096Z,1013.43
2019-01-12T07:40:17.058Z,1013.37
2019-01-12T07:41:17.022Z,1013.46
2019-01-12T07:42:16.983Z,1013.45
2019-01-12T07:43:16.944Z,1013.51
2019-01-12T07:44:16.906Z,1013.44
2019-01-12T07:45:16.871Z,1013.33
2019-01-12T07:46:16.829Z,1013.45
2019-01-12T07:47:16.812Z,1013.49
2019-01-12T07:48:16.754Z,1013.35
2019-01-12T07:49:16.719Z,1013.41
2019-01-12T07:50:16.677Z,1013.25
2019-01-12T07:51:16.640Z,1013.35
2019-01-12T07:52:16.601Z,1013.40
2019-01-12T07:53:16.562Z,1013.35
2019-01-12T07:54:16.528Z,1013.35
2019-01-12T07:55:16.544Z,1013.32
2019-01-12T07:56:16.449Z,1013.27
2019-01-12T07:57:16.411Z,1013.24
2019-01-12T07:58:16.374Z,1013.18
2019-01-12T07:59:16.334Z,1013.18
2019-01-12T08:00:16.296Z,1013.24
2019-01-12T08:01:16.258Z,1013.27
2019-01-12T08:02:16.218Z,1013.17
2019-01-12T08:03:16.184Z,1013.15
2019-01-12T08:04:16.140Z,1013.10
2019-01-12T08:05:16.107Z,1013.00
2019-01-12T08:06:16.066Z,1013.10
2019-01-12T08:07:16.031Z,1013.05
2019-01-12T08:08:15.992Z,1013.01
2019-01-12T08:09:15.953Z,1013.00
2019-01-12T08:10:15.912Z,1013.06
2019-01-12T08:11:15.879Z,1012.97
2019-01-12T08:12:15.843Z,1013.00
2019-01-12T08:13:15.799Z,1012.90
2019-01-12T08:14:15.763Z,1012.86
2019-01-12T08:15:15.727Z,1012.90
2019-01-12T08:16:15.685Z,1012.96
2019-01-12T08:17:15.642Z,1012.80
2019-01-12T08:18:15.608Z,1012.79
2019-01-12T08:19:15.571Z,1012.89
2019-01-12T08:20:15.534Z,1012.84
2019-01-12T08:21:15.547Z,1012.82
2019-01-12T08:22:15.452Z,1012.81
2019-01-12T08:23:15.418Z,1012.67
2019-01-12T08:24:15.381Z,1012.70
2019-01-12T08:25:15.343Z,1012.60
2019-01-12T08:26:15.303Z,1012.66
2019-01-12T08:27:15.264Z,1012.59
2019-01-12T08:28:15.221Z,1012.51
2019-01-12T08:29:15.238Z,1012.57
2019-01-12T08:30:15.153Z,1012.50
2019-01-12T08:31:15.109Z,1012.59
2019-01-12T08:32:15.074Z,1012.59
2019-01-12T08:33:15.036Z,1012.55
2019-01-12T08:34:14.999Z,1012.52
2019-01-12T08:35:14.957Z,1012.48
2019-01-12T08:36:14.924Z,1012.47
2019-01-12T08:37:14.884Z,1012.50
2019-01-12T08:38:14.845Z,1012.42
2019-01-12T08:39:14.810Z,1012.47
2019-01-12T08:40:14.768Z,1012.45
2019-01-12T08:41:14.731Z,1012.43
2019-01-12T08:42:14.692Z,1012.39
2019-01-12T08:43:14.656Z,1012.31
2019-01-12T08:44:14.618Z,1012.34
2019-01-12T08:45:14.582Z,1012.34
2019-01-12T08:46:14.534Z,1012.33
2019-01-12T08:47:14.548Z,1012.31
2019-01-12T08:48:14.466Z,1012.28
2019-01-12T08:49:14.427Z,1012.32
2019-01-12T08:50:14.389Z,1012.30
2019-01-12T08:51:14.353Z,1012.28
2019-01-12T08:52:14.317Z,1012.24
2019-01-12T08:53:14.275Z,1012.31
2019-01-12T08:54:14.244Z,1012.35
2019-01-12T08:55:14.201Z,1012.38
2019-01-12T08:56:14.164Z,1012.39
2019-01-12T08:57:14.125Z,1012.47
2019-01-12T08:58:14.085Z,1012.53
2019-01-12T08:59:14.045Z,1012.51
2019-01-12T09:00:14.013Z,1012.59
2019-01-12T09:01:13.976Z,1012.58
2019-01-12T09:02:13.939Z,1012.62
2019-01-12T09:03:13.899Z,1012.62
2019-01-12T09:04:13.875Z,1012.60
2019-01-12T09:05:13.823Z,1012.71
2019-01-12T09:06:13.786Z,1012.70
2019-01-12T09:07:13.744Z,1012.58
2019-01-12T09:08:13.711Z,1012.54
2019-01-12T09:09:13.673Z,1012.49
2019-01-12T09:10:13.634Z,1012.40
2019-01-12T09:11:13.598Z,1012.37
2019-01-12T09:12:13.561Z,1012.31
2019-01-12T09:13:13.524Z,1012.23
2019-01-12T09:14:13.486Z,1012.29
2019-01-12T09:15:13.452Z,1012.25
2019-01-12T09:16:13.409Z,1012.21
2019-01-12T09:17:13.370Z,1012.15
2019-01-12T09:18:13.334Z,1012.12
2019-01-12T09:19:13.295Z,1012.07
2019-01-12T09:20:13.261Z,1012.12
2019-01-12T09:21:13.220Z,1011.89
2019-01-12T09:22:13.181Z,1011.99
2019-01-12T09:23:13.146Z,1011.88
2019-01-12T09:24:13.106Z,1011.82
2019-01-12T09:25:13.069Z,1011.84
2019-01-12T09:26:13.029Z,1011.83
2019-01-12T09:27:12.995Z,1011.73
2019-01-12T09:28:12.957Z,1011.81
2019-01-12T09:29:12.919Z,1011.77
2019-01-12T09:30:12.879Z,1011.81
2019-01-12T09:31:12.842Z,1011.85
2019-01-12T09:32:12.807Z,1011.71
2019-01-12T09:33:12.769Z,1011.73
2019-01-12T09:34:13.185Z,1011.69
2019-01-12T09:35:12.712Z,1011.73
2019-01-12T09:36:12.656Z,1011.73
2019-01-12T09:37:12.615Z,1011.74
2019-01-12T09:38:12.582Z,1011.77
2019-01-12T09:39:12.541Z,1011.72
2019-01-12T09:40:12.507Z,1011.60
2019-01-12T09:41:12.469Z,1011.60
2019-01-12T09:42:12.429Z,1011.77
2019-01-12T09:43:12.391Z,1011.78
2019-01-12T09:44:12.354Z,1011.72
2019-01-12T09:45:12.317Z,1011.73
2019-01-12T09:46:12.281Z,1011.57
2019-01-12T09:47:13.097Z,1011.60
2019-01-12T09:48:12.205Z,1011.63
2019-01-12T09:49:12.170Z,1011.47
2019-01-12T09:50:12.130Z,1011.48
2019-01-12T09:51:12.101Z,1011.62
2019-01-12T09:52:12.054Z,1011.57
2019-01-12T09:53:12.023Z,1011.55
2019-01-12T09:54:11.982Z,1011.65
2019-01-12T09:55:11.945Z,1011.66
2019-01-12T09:56:11.905Z,1011.63
2019-01-12T09:57:11.869Z,1011.51
2019-01-12T09:58:11.831Z,1011.57
2019-01-12T09:59:11.794Z,1011.62
2019-01-12T10:00:11.758Z,1011.49
2019-01-12T10:01:11.719Z,1011.31
2019-01-12T10:02:11.704Z,1011.34
2019-01-12T10:03:11.644Z,1011.36
2019-01-12T10:04:11.608Z,1011.47
2019-01-12T10:05:11.569Z,1011.29
2019-01-12T10:06:11.530Z,1011.29
2019-01-12T10:07:11.493Z,1011.20
2019-01-12T10:08:11.456Z,1011.10
2019-01-12T10:09:11.419Z,1011.19
2019-01-12T10:10:11.381Z,1011.19
2019-01-12T10:11:11.374Z,1011.03
2019-01-12T10:12:11.306Z,1011.11
2019-01-12T10:13:11.267Z,1011.07
2019-01-12T10:14:11.231Z,1010.95
2019-01-12T10:15:11.193Z,1011.12
2019-01-12T10:16:11.196Z,1011.00
2019-01-12T10:17:12.560Z,1010.77
2019-01-12T10:18:11.086Z,1010.77
2019-01-12T10:19:11.044Z,1010.80
2019-01-12T10:20:11.006Z,1010.82
2019-01-12T10:21:10.970Z,1010.85
2019-01-12T10:22:10.931Z,1010.96
2019-01-12T10:23:10.891Z,1010.83
2019-01-12T10:24:10.857Z,1010.89
2019-01-12T10:25:10.824Z,1010.81
2019-01-12T10:26:10.785Z,1010.83
2019-01-12T10:27:10.742Z,1010.72
2019-01-12T10:28:10.706Z,1010.45
2019-01-12T10:29:11.553Z,1010.54
2019-01-12T10:30:10.665Z,1010.85
2019-01-12T10:31:10.594Z,1010.76
2019-01-12T10:32:10.554Z,1010.76
2019-01-12T10:33:10.513Z,1010.75
2019-01-12T10:34:10.480Z,1010.71
2019-01-12T10:35:10.442Z,1010.73
2019-01-12T10:36:10.405Z,1010.76
2019-01-12T10:37:10.364Z,1010.74
2019-01-12T10:38:10.331Z,1010.58
2019-01-12T10:39:10.291Z,1010.62
2019-01-12T10:40:10.253Z,1010.66
2019-01-12T10:41:10.217Z,1010.68
2019-01-12T10:42:10.179Z,1010.54
2019-01-12T10:43:10.142Z,1010.64
2019-01-12T10:44:10.106Z,1010.68
2019-01-12T10:45:10.091Z,1010.53
2019-01-12T10:46:10.029Z,1010.51
2019-01-12T10:47:09.990Z,1010.56
2019-01-12T10:48:09.954Z,1010.64
2019-01-12T10:49:09.915Z,1010.49
2019-01-12T10:50:09.877Z,1010.48
2019-01-12T10:51:09.844Z,1010.54
2019-01-12T10:52:09.802Z,1010.49
2019-01-12T10:53:09.766Z,1010.64
2019-01-12T10:54:09.729Z,1010.52
2019-01-12T10:55:09.692Z,1010.71
2019-01-12T10:56:09.655Z,1010.58
2019-01-12T10:57:09.619Z,1010.67
2019-01-12T10:58:09.580Z,1010.65
2019-01-12T10:59:09.543Z,1010.53
2019-01-12T11:00:09.505Z,1010.64
2019-01-12T11:01:09.677Z,1010.57
2019-01-12T11:02:09.431Z,1010.54
2019-01-12T11:03:09.393Z,1010.51
2019-01-12T11:04:09.356Z,1010.47
2019-01-12T11:05:09.335Z,1010.36
2019-01-12T11:06:09.282Z,1010.39
2019-01-12T11:07:09.246Z,1010.45
2019-01-12T11:08:09.203Z,1010.49
2019-01-12T11:09:09.168Z,1010.41
2019-01-12T11:10:09.135Z,1010.33
2019-01-12T11:11:09.094Z,1010.38
2019-01-12T11:12:09.052Z,1010.40
2019-01-12T11:13:09.025Z,1010.29
2019-01-12T11:14:08.982Z,1010.36
2019-01-12T11:15:08.945Z,1010.15
2019-01-12T11:16:08.908Z,1010.17
2019-01-12T11:17:08.872Z,1010.21
2019-01-12T11:18:08.833Z,1010.29
2019-01-12T11:19:08.797Z,1010.24
2019-01-12T11:20:08.763Z,1010.28
2019-01-12T11:21:08.714Z,1010.37
2019-01-12T11:22:08.684Z,1010.33
2019-01-12T11:23:08.649Z,1010.24
2019-01-12T11:24:08.607Z,1010.25
2019-01-12T11:25:08.575Z,1010.16
2019-01-12T11:26:08.538Z,1010.14
2019-01-12T11:27:12.152Z,1010.08
2019-01-12T11:28:08.454Z,1010.09
2019-01-12T11:29:08.424Z,1009.91
2019-01-12T11:30:08.384Z,1010.04
2019-01-12T11:31:08.346Z,1009.96
2019-01-12T11:32:08.311Z,1009.99
2019-01-12T11:33:08.271Z,1010.04
2019-01-12T11:34:08.236Z,1009.95
2019-01-12T11:35:08.199Z,1009.95
2019-01-12T11:36:08.160Z,1009.93
2019-01-12T11:37:08.123Z,1009.95
2019-01-12T11:38:08.085Z,1010.05
2019-01-12T11:39:08.049Z,1010.05
2019-01-12T11:40:08.012Z,1010.02
2019-01-12T11:41:07.974Z,1009.89
2019-01-12T11:42:07.928Z,1009.90
2019-01-12T11:43:07.899Z,1010.02
2019-01-12T11:44:07.859Z,1010.05
2019-01-12T11:45:07.825Z,1009.93
2019-01-12T11:46:07.787Z,1009.72
2019-01-12T11:47:07.750Z,1009.89
2019-01-12T11:48:07.710Z,1009.65
2019-01-12T11:49:07.675Z,1009.77
2019-01-12T11:50:07.635Z,1009.55
2019-01-12T11:51:07.601Z,1009.73
2019-01-12T11:52:07.562Z,1009.74
2019-01-12T11:53:07.527Z,1009.84
2019-01-12T11:54:07.486Z,1009.52
2019-01-12T11:55:07.449Z,1009.70
2019-01-12T11:56:07.411Z,1009.60
2019-01-12T11:57:07.374Z,1009.54
2019-01-12T11:58:07.336Z,1009.38
2019-01-12T11:59:07.298Z,1009.57
2019-01-12T12:00:07.264Z,1009.64
2019-01-12T12:01:07.225Z,1009.35
2019-01-12T12:02:07.201Z,1009.46
2019-01-12T12:03:07.151Z,1009.31
2019-01-12T12:04:07.113Z,1009.42
2019-01-12T12:05:07.075Z,1009.11